samedi 5 avril 2014

ALERTE SPOTTING 05/04/14


320 F-GHQE Air Corsica (blanc avec titre)
  XK4501/XK4500   07h35/08h30

32A EC-LVP Vueling (couleur Linking Europe)
   dpt  VY1983  06h50
  VY1984/VY3185   12h10/13h00
  arv VY3184  21h40

744 EC-KQC Pullmantur Air
  dpt   PLM6021  12h25

752 G-ZAPX Titan Airways
   arv  EC8031  12h45
  (départ 06/04 10h45 EC8001)

73H CN-RGN RAM (sticker 50th 737)
   AT650/AT653  12h20/13h20
 AT652/AT651  19h45/21h05

76W I-NDMJ Neos
   CRL091/CRL990   15h20/16h40

Manque les prévisions/immats BE / certains IB / AZ / TP / TU / BA / AH / KM
*** Heures en Local Time **
Prévisions matinales soumises à modifications de dernières minute. Voir le log du mois pour la version 'définitive' de la journée: http://www.airkalo.com/ORLYAVIATION/Logdumois.html

le TAF de la journée:



METAR: LFPO 050230Z 25002KT CAVOK 06/05 Q1015 NOSIG=
TAF LONG: LFPO 042300Z 0500/0606 29005KT CAVOK PROB30 TEMPO 0504/0507 4000
BR BECMG 0508/0510 SCT035 TEMPO 0512/0518 BKN040 BECMG 0522/0524
BKN010 TEMPO 0602/0606 17005KT BKN004=